Piedmont, KS (67122)

5:40 AM CDT on August 30, 2015 (GMT -0500)
Logan Township | | Change Station
CLOSE
Current Station
Personal Weather Station
Location: Leon, KS
Elevation: 1355 ft
Nearby Weather Stations
Active Advisory: Dense Fog Advisory

Elev 1355 ft 37.62 °N, 96.75 °W | Updated 10 minutes ago

Mostly Cloudy
Mostly Cloudy
61.7 °F
Feels Like 61.7 °F
N
0.0
Wind Variable Wind from ESE

Today
High -- | Low -- °F
--% Chance of Precip.
Yesterday
High -- | Low -- °F
Precip. -- in
6:53 AM 7:57 PM
Full, 99% visible
Pressure 30.02 in
Visibility 1.0 miles
Clouds
Dew Point 61 °F
Humidity 99%
Rainfall 0.00 in
Snow Depth Not available.
UV Not available.
Pollen 10.60 out of 12
Air Quality Not available.
Flu Activity Not available.
SPECI KAAO 301036Z AUTO 36004KT 1SM BR VV004 14/14 A3002 RMK AO2 T01440139
Pressure 30.02 in
Visibility 1.0 miles
Clouds
Dew Point 61 °F
Humidity 99%
Rainfall 0.00 in
Snow Depth Not available.
UV Not available.
Pollen 10.60 out of 12
Air Quality Not available.
Flu Activity Not available.
SPECI KAAO 301036Z AUTO 36004KT 1SM BR VV004 14/14 A3002 RMK AO2 T01440139

10-Day Weather Forecast

×

Almanac

Astronomy

Aug. 30, 2015 Rise Set
Actual Time
Civil Twilight
Nautical Twilight
Astronomical Twilight
Moon
Length of Visible Light
Length of Day
Tomorrow will be .
, % of the Moon is Illuminated

Today's Extremes

State Highs State Lows

Community

WunderPhotos

Upload Photos

1,850,925 photos uploaded!

WunderBlogs® & News

Nearby

Air Quality

  Air Quality AQ Index Pollutant
Not available.

Snow Depth

Station Depth Elevation

Earthquake Activity

City Distance Mag. Time & Date
Minimum magnitude displayed is 2.5.

Coastal Water Temperatures

Place Temperature

Stations

Nearby Weather Stations

Station Location Temp. Windchill Dew Point Humidity Wind Precip. Elev Updated Type
                   
Dense Fog Advisory
Statement as of 4:13 AM CDT on August 30, 2015

... Dense fog advisory in effect until 10 am CDT this morning...

The National Weather Service in Wichita has issued a dense fog
advisory... which is in effect until 10 am CDT this morning.

* Timing... conditions will continue to deteriorate through 8 am...
with conditions expected to improve by 10 am.

* Impacts... areas with visibilities of less that one quarter mile
are likely. The dense fog is likely along highways 50 and
56... I-70 and I-135 between Newton and Salina. Abrupt changes in
visibilities are also likely across the Flint Hills.

Precautionary/preparedness actions...

A dense fog advisory means visibilities will frequently be
reduced to less than one quarter mile. If driving... slow down.
Use your headlights and leave plenty of distance ahead of you.



Howerton